Riverton, UT

4:19 PM MDT on October 23, 2014 (GMT -0600)
Bluewing Way | Change Station
CLOSE
Current Station
Personal Weather Station
Location: Riverton, UT
Elevation: 4846 ft
Nearby Weather Stations

Elev 4846 ft 40.50 °N, 112.01 °W | Updated 2 seconds ago

Partly Cloudy
Partly Cloudy
71.8 °F
Feels Like 76 °F
N
14.0
Wind Variable Wind from South

Today
High -- | Low -- °F
--% Chance of Precip.
Yesterday
High -- | Low -- °F
Precip. -- in
7:47 AM 6:36 PM
New Moon, 0% visible
Pressure 29.97 in
Visibility 10.0 miles
Clouds Scattered Clouds 13000 ft
Mostly Cloudy 20000 ft
Mostly Cloudy 23000 ft
Heat Index 76 °F
Dew Point 36 °F
Humidity 32%
Rainfall 0.00 in
Snow Depth Not available.
UV 1 out of 12
Pollen 1.80 out of 12
Ozone Good
PM2.5 Good
Flu Activity Sporadic
METAR KSLC 232153Z 33007KT 10SM SCT130 BKN200 BKN230 20/02 A3005 RMK AO2 SLP148 VIRGA DSNT N SCSL DSNT NE-S ACSL DSNT SW-N T02000022

More Conditions Fewer Conditions

Pressure 29.97 in
Visibility 10.0 miles
Clouds Scattered Clouds 13000 ft
Mostly Cloudy 20000 ft
Mostly Cloudy 23000 ft
Heat Index 76 °F
Dew Point 36 °F
Humidity 32%
Rainfall 0.00 in
Snow Depth Not available.
UV 1 out of 12
Pollen 1.80 out of 12
Ozone Good
PM2.5 Good
Flu Activity Sporadic
METAR KSLC 232153Z 33007KT 10SM SCT130 BKN200 BKN230 20/02 A3005 RMK AO2 SLP148 VIRGA DSNT N SCSL DSNT NE-S ACSL DSNT SW-N T02000022

More Conditions Fewer Conditions

10-Day Weather Forecast

Almanac

Astronomy

Oct. 23, 2014 Rise Set
Actual Time 7:47 AM MDT 6:36 PM MDT
Civil Twilight 7:19 AM MDT 7:03 PM MDT
Nautical Twilight 6:48 AM MDT 7:35 PM MDT
Astronomical Twilight 6:16 AM MDT 8:07 PM MDT
Moon 7:31 AM MDT 6:40 PM MDT
Length of Visible Light 11h 44m
Length of Day
10h 48m
Tomorrow will be 2m 29s shorter.
New Moon, 0% of the Moon is Illuminated
Today
New Moon
Oct 30
First Quarter
Nov 6
Full
Nov 14
Last Quarter
Nov 22
New

Today's Extremes

State Highs State Lows

Community

WunderPhotos

Upload Photos

1,764,383 photos uploaded!

WunderBlogs® & News

Nearby

Air Quality

  Air Quality AQ Index Pollutant
Yesterday Good
OZONE
Yesterday Good
PM2.5
Current Good
OZONE
Current Good
PM2.5
Thursday Good
OZONE
Friday Good
OZONE
Saturday Good
OZONE

Snow Depth

Station Depth Elevation
Brighton 0 in 8750 ft
Louis Meadow 0 in 6700 ft
Cascade Mountain 2 in 7768 ft
Farmington 0 in 8000 ft
Smith & Morehouse 0 in 7600 ft

Earthquake Activity

City Distance Mag. Time & Date
Ferron, Utah 111 miles 2.5 10:53 PM MDT
2014-10-21
Minimum magnitude displayed is 2.5.

Coastal Water Temperatures

Place Temperature
No Stations Reporting

Nearby Weather Stations